Time;durP1;ratioP1;P1;durP2;ratioP2;P2;SDS_P1;SDS_P2;PMS_P1;PMS_P2;Temp;Humidity;BMP_temperature;BMP_pressure;BME280_temperature;BME280_humidity;BME280_pressure;Samples;Min_cycle;Max_cycle;Signal;HPM_P1;HPM_P2
2021/10/08 00:02:03;;;;;;;24.33;15.23;;;;;;;;;;5035395;28;20596;-67
2021/10/08 00:04:29;;;;;;;18.07;12.80;;;;;;;;;;5035470;28;20936;-67
2021/10/08 00:06:55;;;;;;;16.73;13.70;;;;;;;;;;5035340;28;20437;-67
2021/10/08 00:09:22;;;;;;;18.13;13.40;;;;;;;;;;5035580;28;20512;-67
2021/10/08 00:11:48;;;;;;;18.47;13.40;;;;;;;;;;5035644;28;20402;-67
2021/10/08 00:14:15;;;;;;;22.57;14.37;;;;;;;;;;5035606;28;20783;-67
2021/10/08 00:16:41;;;;;;;16.63;13.53;;;;;;;;;;5035137;28;20422;-67
2021/10/08 00:19:07;;;;;;;16.73;12.27;;;;;;;;;;5035230;28;20399;-67
2021/10/08 00:21:33;;;;;;;18.07;14.77;;;;;;;;;;5035276;28;20410;-67
2021/10/08 00:23:59;;;;;;;17.80;13.20;;;;;;;;;;5035119;28;20513;-67
2021/10/08 00:26:25;;;;;;;22.33;14.70;;;;;;;;;;5035218;28;20954;-67
2021/10/08 00:28:51;;;;;;;16.13;13.13;;;;;;;;;;5036003;28;20842;-67
2021/10/08 00:31:17;;;;;;;17.17;12.93;;;;;;;;;;5035770;28;20438;-67
2021/10/08 00:33:43;;;;;;;21.20;14.97;;;;;;;;;;5035477;28;20402;-67
2021/10/08 00:36:09;;;;;;;21.50;14.77;;;;;;;;;;5034834;28;20438;-68
2021/10/08 00:38:36;;;;;;;17.47;14.47;;;;;;;;;;5037202;28;20902;-67
2021/10/08 00:41:03;;;;;;;17.97;12.63;;;;;;;;;;5037264;28;20774;-67
2021/10/08 00:43:29;;;;;;;17.60;13.00;;;;;;;;;;5036562;28;20435;-67
2021/10/08 00:45:55;;;;;;;18.70;12.90;;;;;;;;;;5034628;28;20423;-67
2021/10/08 00:48:21;;;;;;;14.43;12.23;;;;;;;;;;5034711;28;20434;-67
2021/10/08 00:50:49;;;;;;;15.70;11.90;;;;;;;;;;5034782;28;20461;-67
2021/10/08 00:53:15;;;;;;;18.67;13.43;;;;;;;;;;5034449;28;20403;-67
2021/10/08 00:55:43;;;;;;;16.23;13.90;;;;;;;;;;5034452;28;20429;-67
2021/10/08 00:58:10;;;;;;;15.60;12.87;;;;;;;;;;5034350;28;20406;-67
2021/10/08 01:00:39;;;;;;;17.03;12.33;;;;;;;;;;5034393;28;20464;-67
2021/10/08 01:03:05;;;;;;;15.97;12.90;;;;;;;;;;5034247;28;20407;-67
2021/10/08 01:05:31;;;;;;;15.40;13.17;;;;;;;;;;5034152;28;20410;-67
2021/10/08 01:07:57;;;;;;;14.73;13.00;;;;;;;;;;5034416;28;20914;-67
2021/10/08 01:10:23;;;;;;;16.13;13.37;;;;;;;;;;5034069;28;20504;-67
2021/10/08 01:12:49;;;;;;;17.40;13.60;;;;;;;;;;5034072;28;20398;-66
2021/10/08 01:15:15;;;;;;;17.80;12.20;;;;;;;;;;5033945;28;20489;-66
2021/10/08 01:17:41;;;;;;;19.80;14.30;;;;;;;;;;5034033;28;20398;-67
2021/10/08 01:20:11;;;;;;;18.07;14.53;;;;;;;;;;5034240;28;20777;-66
2021/10/08 01:22:37;;;;;;;17.67;13.97;;;;;;;;;;5033985;28;20402;-66
2021/10/08 01:25:03;;;;;;;19.87;13.90;;;;;;;;;;5033878;28;20472;-66
2021/10/08 01:27:29;;;;;;;17.30;13.63;;;;;;;;;;5034568;28;20926;-66
2021/10/08 01:29:57;;;;;;;15.97;13.33;;;;;;;;;;5034001;28;20512;-66
2021/10/08 01:32:24;;;;;;;17.40;13.27;;;;;;;;;;5033836;28;20434;-66
2021/10/08 01:34:50;;;;;;;17.63;12.73;;;;;;;;;;5033638;28;20894;-66
2021/10/08 01:37:17;;;;;;;19.23;14.13;;;;;;;;;;5033630;28;20946;-67
2021/10/08 01:39:43;;;;;;;20.77;12.90;;;;;;;;;;5034647;28;20414;-67
2021/10/08 01:42:10;;;;;;;16.07;13.00;;;;;;;;;;5033864;28;20406;-67
2021/10/08 01:44:36;;;;;;;17.40;14.30;;;;;;;;;;5019922;28;20435;-67
2021/10/08 01:47:02;;;;;;;19.10;15.30;;;;;;;;;;5013099;28;20430;-67
2021/10/08 01:49:28;;;;;;;15.80;12.47;;;;;;;;;;5013757;28;20447;-67
2021/10/08 01:51:54;;;;;;;21.33;12.50;;;;;;;;;;5013737;28;20897;-67
2021/10/08 01:54:20;;;;;;;16.97;12.77;;;;;;;;;;5013706;28;20403;-67
2021/10/08 01:56:46;;;;;;;17.70;13.73;;;;;;;;;;5013598;28;20422;-67
2021/10/08 01:59:13;;;;;;;18.27;12.33;;;;;;;;;;5022228;28;20470;-67
2021/10/08 02:01:40;;;;;;;16.80;12.93;;;;;;;;;;5033088;28;20459;-67
2021/10/08 02:04:06;;;;;;;16.10;12.77;;;;;;;;;;5033404;28;20825;-67
2021/10/08 02:06:32;;;;;;;18.20;13.10;;;;;;;;;;5033122;28;20457;-67
2021/10/08 02:08:58;;;;;;;24.03;17.53;;;;;;;;;;5033137;28;20454;-67
2021/10/08 02:11:24;;;;;;;19.93;16.67;;;;;;;;;;5033258;28;20414;-67
2021/10/08 02:13:50;;;;;;;18.53;15.30;;;;;;;;;;5033284;28;20448;-67
2021/10/08 02:16:20;;;;;;;20.40;14.00;;;;;;;;;;5033196;28;20422;-67
2021/10/08 02:18:46;;;;;;;15.63;13.33;;;;;;;;;;5033077;28;20406;-67
2021/10/08 02:21:12;;;;;;;15.10;12.83;;;;;;;;;;5033001;28;20406;-67
2021/10/08 02:23:38;;;;;;;19.40;12.10;;;;;;;;;;5032986;28;20410;-67
2021/10/08 02:26:04;;;;;;;14.63;12.13;;;;;;;;;;5033266;28;20774;-67
2021/10/08 02:28:30;;;;;;;17.53;12.70;;;;;;;;;;5032980;28;20439;-67
2021/10/08 02:30:56;;;;;;;17.10;12.60;;;;;;;;;;5032880;28;20549;-67
2021/10/08 02:33:23;;;;;;;18.77;13.70;;;;;;;;;;5033053;28;20474;-67
2021/10/08 02:35:50;;;;;;;14.00;11.50;;;;;;;;;;5031793;28;20875;-67
2021/10/08 02:38:16;;;;;;;17.80;12.90;;;;;;;;;;5033005;28;20813;-67
2021/10/08 02:40:42;;;;;;;17.27;11.23;;;;;;;;;;5032809;28;20402;-67
2021/10/08 02:43:08;;;;;;;14.90;12.27;;;;;;;;;;5032732;28;20407;-67
2021/10/08 02:45:34;;;;;;;16.37;11.90;;;;;;;;;;5032671;28;20407;-67
2021/10/08 02:48:00;;;;;;;17.27;11.17;;;;;;;;;;5032904;28;20411;-67
2021/10/08 02:50:26;;;;;;;14.90;11.63;;;;;;;;;;5032732;28;20822;-67
2021/10/08 02:52:53;;;;;;;17.83;13.40;;;;;;;;;;5031447;28;21030;-67
2021/10/08 02:55:19;;;;;;;14.03;11.50;;;;;;;;;;5032705;28;20765;-67
2021/10/08 02:57:45;;;;;;;18.23;12.57;;;;;;;;;;5033072;28;20411;-67
2021/10/08 03:00:11;;;;;;;18.67;12.87;;;;;;;;;;5036729;28;20406;-67
2021/10/08 03:02:38;;;;;;;17.10;12.30;;;;;;;;;;5036618;28;20486;-67
2021/10/08 03:05:04;;;;;;;16.50;13.20;;;;;;;;;;5036566;28;20909;-67
2021/10/08 03:07:30;;;;;;;19.10;12.87;;;;;;;;;;5036552;28;20426;-67
2021/10/08 03:09:56;;;;;;;15.90;13.30;;;;;;;;;;5036369;28;20509;-67
2021/10/08 03:12:23;;;;;;;18.50;12.77;;;;;;;;;;5035850;28;20480;-67
2021/10/08 03:14:49;;;;;;;17.00;12.00;;;;;;;;;;5036508;28;20425;-67
2021/10/08 03:17:15;;;;;;;17.60;12.17;;;;;;;;;;5036579;28;20426;-67
2021/10/08 03:19:41;;;;;;;16.00;11.93;;;;;;;;;;5036365;28;20402;-67
2021/10/08 03:22:08;;;;;;;16.43;12.87;;;;;;;;;;5036510;28;20486;-67
2021/10/08 03:24:34;;;;;;;19.27;13.37;;;;;;;;;;5036716;28;20755;-67
2021/10/08 03:27:00;;;;;;;20.60;13.80;;;;;;;;;;5036214;28;20426;-67
2021/10/08 03:29:27;;;;;;;15.10;11.40;;;;;;;;;;5034052;28;20463;-67
2021/10/08 03:31:53;;;;;;;16.70;12.10;;;;;;;;;;5027384;28;20415;-67
2021/10/08 03:34:19;;;;;;;20.83;13.70;;;;;;;;;;5036337;28;20406;-67
2021/10/08 03:39:14;;;;;;;24.27;14.43;;;;;;;;;;5036122;28;20405;-67
2021/10/08 03:41:42;;;;;;;18.23;14.03;;;;;;;;;;5036136;28;20888;-67
2021/10/08 03:44:09;;;;;;;20.00;13.40;;;;;;;;;;5034621;28;20417;-67
2021/10/08 03:46:56;;;;;;;23.17;14.50;;;;;;;;;;5034954;28;20492;-67
2021/10/08 03:49:23;;;;;;;18.27;13.23;;;;;;;;;;5036012;28;20445;-67
2021/10/08 03:51:50;;;;;;;16.63;13.13;;;;;;;;;;5035698;28;20887;-67
2021/10/08 03:54:17;;;;;;;20.30;13.63;;;;;;;;;;5035932;28;20751;-67
2021/10/08 03:56:44;;;;;;;16.87;13.10;;;;;;;;;;5035974;28;20788;-67
2021/10/08 03:59:10;;;;;;;17.50;13.03;;;;;;;;;;5035690;28;20410;-67
2021/10/08 04:01:36;;;;;;;24.60;15.10;;;;;;;;;;5035589;28;20411;-67
2021/10/08 04:04:04;;;;;;;23.03;15.70;;;;;;;;;;5035433;28;20413;-67
2021/10/08 04:06:31;;;;;;;25.20;15.63;;;;;;;;;;5035659;28;20442;-67
2021/10/08 04:08:58;;;;;;;22.33;16.03;;;;;;;;;;5030857;28;20985;-67
2021/10/08 04:11:24;;;;;;;22.20;17.47;;;;;;;;;;5014696;28;20888;-67
2021/10/08 04:13:50;;;;;;;21.70;15.80;;;;;;;;;;5017025;28;20423;-67
2021/10/08 04:16:16;;;;;;;18.73;15.37;;;;;;;;;;5024239;28;20515;-67
2021/10/08 04:18:42;;;;;;;35.30;19.03;;;;;;;;;;5015443;28;20447;-67
2021/10/08 04:21:08;;;;;;;22.17;17.20;;;;;;;;;;5014112;28;20407;-67
2021/10/08 04:23:34;;;;;;;23.60;18.57;;;;;;;;;;5015420;28;20419;-67
2021/10/08 04:26:00;;;;;;;27.20;18.47;;;;;;;;;;5015598;28;20773;-67
2021/10/08 04:28:26;;;;;;;23.80;17.40;;;;;;;;;;5015334;28;20414;-67
2021/10/08 04:30:52;;;;;;;25.33;18.37;;;;;;;;;;5015509;28;20537;-67
2021/10/08 04:33:20;;;;;;;26.40;18.70;;;;;;;;;;5015127;28;20407;-67
2021/10/08 04:35:46;;;;;;;24.80;17.57;;;;;;;;;;5015835;28;20451;-67
2021/10/08 04:38:12;;;;;;;24.73;18.63;;;;;;;;;;5018066;28;20400;-67
2021/10/08 04:40:38;;;;;;;25.83;18.20;;;;;;;;;;5016785;28;20406;-67
2021/10/08 04:43:04;;;;;;;27.40;18.03;;;;;;;;;;5019293;28;20410;-67
2021/10/08 04:45:30;;;;;;;22.87;16.53;;;;;;;;;;5018342;28;20450;-67
2021/10/08 04:47:57;;;;;;;25.07;17.43;;;;;;;;;;5017201;28;20826;-67
2021/10/08 04:50:23;;;;;;;24.00;18.40;;;;;;;;;;5014962;28;20455;-67
2021/10/08 04:52:49;;;;;;;28.63;18.80;;;;;;;;;;5015172;28;20407;-67
2021/10/08 04:55:15;;;;;;;24.57;18.40;;;;;;;;;;5014882;28;20498;-67
2021/10/08 04:57:42;;;;;;;31.27;18.43;;;;;;;;;;5014816;28;20458;-67
2021/10/08 05:00:08;;;;;;;24.73;19.20;;;;;;;;;;5014984;28;20435;-67
2021/10/08 05:02:34;;;;;;;29.37;18.23;;;;;;;;;;5014915;28;20411;-67
2021/10/08 05:05:00;;;;;;;23.27;17.80;;;;;;;;;;5014793;28;20399;-66
2021/10/08 05:07:26;;;;;;;28.90;18.90;;;;;;;;;;5014507;28;20426;-67
2021/10/08 05:09:52;;;;;;;28.50;19.30;;;;;;;;;;5014606;28;20462;-67
2021/10/08 05:12:19;;;;;;;25.93;19.53;;;;;;;;;;5014570;28;20494;-67
2021/10/08 05:14:45;;;;;;;26.33;18.03;;;;;;;;;;5014669;28;20399;-67
2021/10/08 05:17:11;;;;;;;29.30;19.23;;;;;;;;;;5014311;28;20477;-67
2021/10/08 05:19:37;;;;;;;23.83;17.93;;;;;;;;;;5014658;28;20404;-67
2021/10/08 05:22:03;;;;;;;28.73;19.00;;;;;;;;;;5014597;28;20405;-67
2021/10/08 05:24:29;;;;;;;33.30;20.70;;;;;;;;;;5030187;28;20418;-66
2021/10/08 05:26:55;;;;;;;26.40;19.20;;;;;;;;;;5032940;28;20438;-67
2021/10/08 05:29:21;;;;;;;32.63;19.20;;;;;;;;;;5033764;28;20960;-70
2021/10/08 05:31:47;;;;;;;29.77;19.67;;;;;;;;;;5032956;28;20402;-68
2021/10/08 05:34:13;;;;;;;30.53;19.10;;;;;;;;;;5034469;28;20421;-71
2021/10/08 05:36:40;;;;;;;30.33;20.37;;;;;;;;;;5027237;28;20462;-69
2021/10/08 05:39:06;;;;;;;26.70;16.53;;;;;;;;;;5028772;28;20422;-69
2021/10/08 05:41:32;;;;;;;30.10;19.43;;;;;;;;;;5033997;28;20402;-67
2021/10/08 05:43:58;;;;;;;29.23;20.17;;;;;;;;;;5033825;28;20494;-68
2021/10/08 05:46:24;;;;;;;30.17;21.13;;;;;;;;;;5031340;28;20519;-68
2021/10/08 05:48:50;;;;;;;27.63;18.57;;;;;;;;;;5033939;28;20399;-68
2021/10/08 05:51:16;;;;;;;29.93;20.37;;;;;;;;;;5033844;28;20875;-67
2021/10/08 05:53:43;;;;;;;31.17;20.10;;;;;;;;;;5033850;28;20422;-67
2021/10/08 05:56:09;;;;;;;30.23;19.10;;;;;;;;;;5033467;28;20421;-69
2021/10/08 05:58:35;;;;;;;33.27;21.27;;;;;;;;;;5033724;28;20398;-72
2021/10/08 06:01:01;;;;;;;26.27;18.30;;;;;;;;;;5033492;28;20410;-67
2021/10/08 06:03:27;;;;;;;26.70;18.23;;;;;;;;;;5033728;28;20490;-69
2021/10/08 06:05:53;;;;;;;29.73;20.30;;;;;;;;;;5033738;28;20724;-68
2021/10/08 06:08:19;;;;;;;31.37;20.57;;;;;;;;;;5033844;28;20799;-67
2021/10/08 06:10:45;;;;;;;29.37;19.47;;;;;;;;;;5033494;28;20480;-68
2021/10/08 06:13:11;;;;;;;33.27;21.30;;;;;;;;;;5033166;28;20903;-69
2021/10/08 06:15:37;;;;;;;33.67;19.07;;;;;;;;;;5033977;28;20435;-69
2021/10/08 06:18:03;;;;;;;27.20;19.37;;;;;;;;;;5033326;28;20415;-69
2021/10/08 06:20:29;;;;;;;32.33;20.20;;;;;;;;;;5033796;28;20418;-70
2021/10/08 06:22:56;;;;;;;31.90;21.20;;;;;;;;;;5032435;28;20415;-67
2021/10/08 06:25:22;;;;;;;29.90;20.27;;;;;;;;;;5032809;28;20779;-66
2021/10/08 06:27:51;;;;;;;31.57;19.53;;;;;;;;;;5032710;28;20480;-66
2021/10/08 06:30:17;;;;;;;37.70;20.60;;;;;;;;;;5034049;28;20520;-66
2021/10/08 06:32:43;;;;;;;27.70;19.37;;;;;;;;;;5030431;28;20403;-66
2021/10/08 06:35:09;;;;;;;33.73;19.07;;;;;;;;;;5033637;28;20472;-66
2021/10/08 06:37:36;;;;;;;27.20;18.33;;;;;;;;;;5032088;28;20805;-71
2021/10/08 06:40:02;;;;;;;30.30;19.00;;;;;;;;;;5033447;28;20438;-69
2021/10/08 06:42:28;;;;;;;29.03;19.30;;;;;;;;;;5033177;28;20417;-69
2021/10/08 06:44:55;;;;;;;26.50;19.10;;;;;;;;;;5033181;28;20402;-69
2021/10/08 06:47:21;;;;;;;27.57;18.87;;;;;;;;;;5033313;28;20899;-68
2021/10/08 06:49:47;;;;;;;27.00;18.77;;;;;;;;;;5032902;28;20967;-68
2021/10/08 06:52:13;;;;;;;27.30;20.80;;;;;;;;;;5032998;28;20398;-68
2021/10/08 06:54:39;;;;;;;31.90;20.47;;;;;;;;;;5033323;28;20425;-72
2021/10/08 06:57:05;;;;;;;27.80;19.67;;;;;;;;;;5033223;28;20429;-70
2021/10/08 06:59:31;;;;;;;37.97;19.37;;;;;;;;;;5033274;28;20406;-69
2021/10/08 07:01:57;;;;;;;36.13;20.37;;;;;;;;;;5033040;28;20411;-69
2021/10/08 07:04:24;;;;;;;32.80;20.07;;;;;;;;;;5025618;28;20426;-71
2021/10/08 07:06:50;;;;;;;34.80;21.40;;;;;;;;;;5024488;28;20467;-72
2021/10/08 07:09:16;;;;;;;33.87;20.67;;;;;;;;;;5024902;28;20572;-70
2021/10/08 07:11:42;;;;;;;29.03;18.73;;;;;;;;;;5046675;28;20563;-69
2021/10/08 07:14:08;;;;;;;28.73;19.20;;;;;;;;;;5052954;28;20404;-73
2021/10/08 07:16:34;;;;;;;35.17;20.30;;;;;;;;;;5052682;28;20421;-74
2021/10/08 07:19:13;;;;;;;33.30;19.50;;;;;;;;;;5046452;28;20427;-71
2021/10/08 07:21:42;;;;;;;34.40;20.13;;;;;;;;;;5031840;28;20425;-70
2021/10/08 07:24:08;;;;;;;25.90;18.53;;;;;;;;;;5031155;28;20985;-70
2021/10/08 07:26:34;;;;;;;27.50;19.40;;;;;;;;;;5032768;28;20480;-69
2021/10/08 07:29:00;;;;;;;27.93;19.40;;;;;;;;;;5032553;28;20464;-68
2021/10/08 07:31:26;;;;;;;29.97;21.20;;;;;;;;;;5031766;28;20517;-69
2021/10/08 07:33:52;;;;;;;39.40;21.93;;;;;;;;;;5032600;28;20492;-68
2021/10/08 07:36:19;;;;;;;32.27;20.00;;;;;;;;;;5031465;28;20449;-71
2021/10/08 07:38:45;;;;;;;39.03;21.23;;;;;;;;;;5032304;28;20414;-70
2021/10/08 07:41:11;;;;;;;28.60;21.17;;;;;;;;;;5032321;28;20410;-71
2021/10/08 07:43:37;;;;;;;27.30;19.37;;;;;;;;;;5032430;28;20756;-68
2021/10/08 07:46:04;;;;;;;30.17;21.47;;;;;;;;;;5033149;28;20508;-70
2021/10/08 07:48:30;;;;;;;31.13;21.03;;;;;;;;;;5020823;28;20484;-68
2021/10/08 07:50:57;;;;;;;33.50;20.60;;;;;;;;;;5035582;28;20796;-69
2021/10/08 07:53:24;;;;;;;35.93;22.07;;;;;;;;;;5033715;28;20406;-65
2021/10/08 07:55:50;;;;;;;35.07;20.83;;;;;;;;;;5033680;28;20590;-67
2021/10/08 07:58:17;;;;;;;37.63;22.00;;;;;;;;;;5032966;28;20469;-68
2021/10/08 08:00:43;;;;;;;35.53;20.60;;;;;;;;;;5033522;28;20752;-66
2021/10/08 08:03:09;;;;;;;38.20;22.33;;;;;;;;;;5034794;28;20446;-69
2021/10/08 08:05:35;;;;;;;29.20;20.37;;;;;;;;;;5038108;28;20452;-72
2021/10/08 08:08:02;;;;;;;33.33;19.87;;;;;;;;;;5034590;28;20930;-69
2021/10/08 08:10:29;;;;;;;29.53;20.50;;;;;;;;;;5034891;28;20458;-69
2021/10/08 08:12:55;;;;;;;28.48;19.80;;;;;;;;;;5033920;28;20413;-66
2021/10/08 08:15:21;;;;;;;33.30;20.57;;;;;;;;;;5034933;28;20165;-66
2021/10/08 08:17:47;;;;;;;32.57;21.37;;;;;;;;;;5035027;28;20411;-67
2021/10/08 08:20:13;;;;;;;27.90;18.53;;;;;;;;;;5034633;28;20454;-66
2021/10/08 08:22:39;;;;;;;31.20;18.10;;;;;;;;;;5033980;28;20414;-66
2021/10/08 08:25:06;;;;;;;28.30;18.70;;;;;;;;;;5032828;28;20425;-66
2021/10/08 08:27:32;;;;;;;30.80;19.83;;;;;;;;;;5034080;28;20951;-66
2021/10/08 08:29:58;;;;;;;26.40;18.40;;;;;;;;;;5033505;28;20446;-66
2021/10/08 08:32:27;;;;;;;26.20;17.20;;;;;;;;;;5034971;28;20801;-66
2021/10/08 08:34:53;;;;;;;29.17;19.10;;;;;;;;;;5033794;28;20417;-65
2021/10/08 08:37:19;;;;;;;30.27;22.33;;;;;;;;;;5034063;28;20834;-66
2021/10/08 08:39:45;;;;;;;28.70;20.50;;;;;;;;;;5033660;28;20908;-70
2021/10/08 08:42:11;;;;;;;31.00;19.30;;;;;;;;;;5032633;28;20422;-66
2021/10/08 08:44:38;;;;;;;27.93;19.00;;;;;;;;;;5033923;28;20411;-66
2021/10/08 08:47:04;;;;;;;27.77;18.90;;;;;;;;;;5033049;28;20445;-70
2021/10/08 08:49:30;;;;;;;31.50;19.30;;;;;;;;;;5032996;28;20446;-68
2021/10/08 08:51:56;;;;;;;29.70;19.10;;;;;;;;;;5034590;28;20473;-68
2021/10/08 08:54:23;;;;;;;28.97;19.97;;;;;;;;;;5034710;28;20764;-69
2021/10/08 08:56:49;;;;;;;26.60;18.47;;;;;;;;;;5033617;28;20955;-69
2021/10/08 08:59:15;;;;;;;29.97;20.40;;;;;;;;;;5034246;28;20447;-70
2021/10/08 09:01:58;;;;;;;28.67;19.93;;;;;;;;;;5034909;28;20514;-70
2021/10/08 09:04:28;;;;;;;30.37;20.00;;;;;;;;;;5020888;28;20545;-70
2021/10/08 09:06:54;;;;;;;25.33;19.20;;;;;;;;;;5033548;28;20461;-70
2021/10/08 09:09:21;;;;;;;28.37;18.47;;;;;;;;;;5032974;28;20454;-68
2021/10/08 09:11:48;;;;;;;25.47;17.03;;;;;;;;;;5033003;28;20553;-73
2021/10/08 09:14:20;;;;;;;24.57;17.10;;;;;;;;;;5034359;28;20417;-72
2021/10/08 09:17:05;;;;;;;28.43;16.87;;;;;;;;;;5033544;28;20843;-72
2021/10/08 09:19:49;;;;;;;26.90;16.93;;;;;;;;;;5033656;28;20418;-71
2021/10/08 09:22:16;;;;;;;23.80;15.73;;;;;;;;;;5033403;28;20411;-70
2021/10/08 09:24:42;;;;;;;26.83;18.43;;;;;;;;;;5033721;28;20426;-71
2021/10/08 09:27:12;;;;;;;20.07;13.90;;;;;;;;;;5031552;28;20438;-71
2021/10/08 09:29:46;;;;;;;22.47;13.73;;;;;;;;;;5033864;28;20446;-73
2021/10/08 09:32:12;;;;;;;20.70;13.60;;;;;;;;;;5033068;28;20502;-71
2021/10/08 09:34:38;;;;;;;18.93;13.17;;;;;;;;;;5033814;28;20411;-68
2021/10/08 09:37:06;;;;;;;22.43;13.30;;;;;;;;;;5032661;28;20565;-68
2021/10/08 09:39:37;;;;;;;16.67;12.17;;;;;;;;;;5033528;28;20840;-68
2021/10/08 09:42:12;;;;;;;16.60;10.97;;;;;;;;;;5035558;28;20399;-72
2021/10/08 09:44:45;;;;;;;18.00;10.10;;;;;;;;;;5033140;28;20836;-67
2021/10/08 09:47:13;;;;;;;13.30;10.70;;;;;;;;;;5020113;28;21278;-73
2021/10/08 09:49:40;;;;;;;13.60;11.10;;;;;;;;;;5024358;28;20453;-68
2021/10/08 09:52:24;;;;;;;14.00;9.57;;;;;;;;;;5031951;28;20414;-68
2021/10/08 09:54:52;;;;;;;13.10;8.47;;;;;;;;;;5033001;28;20410;-68
2021/10/08 09:57:21;;;;;;;9.00;7.80;;;;;;;;;;5032691;28;20492;-68
2021/10/08 09:59:48;;;;;;;9.63;7.93;;;;;;;;;;5032957;28;20465;-68
2021/10/08 10:02:15;;;;;;;11.10;8.40;;;;;;;;;;5033034;28;20406;-68
2021/10/08 10:04:47;;;;;;;11.40;9.47;;;;;;;;;;5033125;28;20449;-68
2021/10/08 10:07:14;;;;;;;12.30;9.00;;;;;;;;;;5032508;28;20621;-68
2021/10/08 10:09:40;;;;;;;11.80;9.40;;;;;;;;;;5032690;28;20500;-68
2021/10/08 10:12:09;;;;;;;10.83;8.23;;;;;;;;;;5032666;28;20417;-68
2021/10/08 10:14:35;;;;;;;9.70;8.13;;;;;;;;;;5032297;28;20415;-68
2021/10/08 10:17:03;;;;;;;9.97;8.50;;;;;;;;;;5040491;28;20463;-70
2021/10/08 10:19:32;;;;;;;8.43;7.53;;;;;;;;;;5050932;28;20409;-69
2021/10/08 10:22:00;;;;;;;11.90;8.80;;;;;;;;;;5028274;28;20469;-69
2021/10/08 10:24:26;;;;;;;10.30;7.63;;;;;;;;;;5033034;28;20814;-69
2021/10/08 10:26:54;;;;;;;10.50;8.20;;;;;;;;;;5032719;28;20525;-68
2021/10/08 10:29:21;;;;;;;11.73;9.63;;;;;;;;;;5032659;28;20477;-68
2021/10/08 10:31:47;;;;;;;11.27;9.20;;;;;;;;;;5032674;28;20449;-68
2021/10/08 10:34:14;;;;;;;11.47;9.40;;;;;;;;;;5032608;28;20409;-69
2021/10/08 10:36:41;;;;;;;11.83;8.70;;;;;;;;;;5032645;28;20447;-69
2021/10/08 10:39:13;;;;;;;11.23;8.93;;;;;;;;;;5032638;28;20407;-69
2021/10/08 10:41:40;;;;;;;12.10;9.27;;;;;;;;;;5032769;28;20433;-69
2021/10/08 10:44:12;;;;;;;10.63;8.93;;;;;;;;;;5032874;28;20402;-69
2021/10/08 10:51:57;;;;;;;9.33;7.10;;;;;;;;;;5032861;28;20851;-69
2021/10/08 10:54:37;;;;;;;8.93;8.00;;;;;;;;;;5032528;28;20779;-69
2021/10/08 10:57:06;;;;;;;9.80;8.17;;;;;;;;;;5032304;28;20435;-69
2021/10/08 10:59:33;;;;;;;12.03;8.40;;;;;;;;;;5032359;28;20426;-69
2021/10/08 11:02:09;;;;;;;10.60;9.50;;;;;;;;;;5032188;28;20767;-69
2021/10/08 11:04:35;;;;;;;10.53;8.60;;;;;;;;;;5031935;28;20428;-69
2021/10/08 11:07:04;;;;;;;9.83;8.67;;;;;;;;;;5031724;28;20456;-68
2021/10/08 11:09:31;;;;;;;11.77;9.33;;;;;;;;;;5033017;28;20460;-69
2021/10/08 11:12:15;;;;;;;10.83;8.57;;;;;;;;;;5030743;28;20433;-69
2021/10/08 11:14:41;;;;;;;11.03;9.30;;;;;;;;;;5028529;28;20522;-69
2021/10/08 11:17:28;;;;;;;11.50;10.20;;;;;;;;;;5032397;28;20517;-69
2021/10/08 11:19:54;;;;;;;13.17;10.53;;;;;;;;;;5034400;28;20468;-69
2021/10/08 11:22:40;;;;;;;12.00;9.97;;;;;;;;;;5040496;28;20414;-69
2021/10/08 11:25:07;;;;;;;11.10;9.73;;;;;;;;;;5016231;28;20472;-69
2021/10/08 11:27:34;;;;;;;11.37;9.07;;;;;;;;;;5016167;28;20435;-69
2021/10/08 11:30:04;;;;;;;9.40;8.17;;;;;;;;;;5016029;28;20561;-69
2021/10/08 11:32:34;;;;;;;8.80;7.60;;;;;;;;;;5022854;28;20417;-68
2021/10/08 11:35:01;;;;;;;11.60;9.27;;;;;;;;;;5034598;28;20501;-69
2021/10/08 11:37:29;;;;;;;9.03;7.40;;;;;;;;;;5035700;28;20525;-69
2021/10/08 11:39:55;;;;;;;11.53;9.10;;;13.40;99.90;;;;;;5035927;28;20403;-69
2021/10/08 11:42:24;;;;;;;11.20;9.10;;;;;;;;;;5046417;28;20415;-69
2021/10/08 11:52:43;;;;;;;12.53;9.70;;;;;;;;;;5015632;28;20387;-69
2021/10/08 11:55:14;;;;;;;15.17;9.90;;;;;;;;;;5016111;28;20399;-69
2021/10/08 11:57:49;;;;;;;12.70;9.80;;;;;;;;;;5015521;28;20938;-69
2021/10/08 12:00:15;;;;;;;16.60;12.43;;;;;;;;;;5015637;28;20406;-69
2021/10/08 12:02:54;;;;;;;13.73;11.30;;;;;;;;;;5015736;28;20885;-69
2021/10/08 12:05:20;;;;;;;16.43;12.37;;;;;;;;;;5026510;28;20414;-69
2021/10/08 12:08:01;;;;;;;13.20;10.50;;;;;;;;;;5035293;28;20407;-68
2021/10/08 12:10:27;;;;;;;16.33;11.77;;;;;;;;;;5035323;28;20544;-69
2021/10/08 12:12:55;;;;;;;16.40;12.80;;;;;;;;;;5035255;28;20414;-69
2021/10/08 12:15:28;;;;;;;13.57;11.47;;;;;;;;;;5035295;28;20401;-69
2021/10/08 12:17:55;;;;;;;13.93;11.33;;;;;;;;;;5035399;28;20773;-69
2021/10/08 12:20:25;;;;;;;16.77;13.30;;;;;;;;;;5035189;28;20460;-69
2021/10/08 12:23:11;;;;;;;14.00;12.47;;;;;;;;;;5035268;28;20431;-69
2021/10/08 12:25:37;;;;;;;18.97;13.47;;;;;;;;;;5034831;28;20422;-70
2021/10/08 12:28:04;;;;;;;15.83;12.90;;;;;;;;;;5034917;28;20418;-70
2021/10/08 12:30:30;;;;;;;16.53;12.47;;;;;;;;;;5034491;28;20454;-69
2021/10/08 12:33:03;;;;;;;15.90;12.80;;;;;;;;;;5034572;28;20573;-69
2021/10/08 12:35:29;;;;;;;15.07;13.20;;;;;;;;;;5034610;28;20406;-69
2021/10/08 12:38:01;;;;;;;14.20;12.33;;;;;;;;;;5034797;28;21026;-68
2021/10/08 12:40:27;;;;;;;15.60;12.70;;;;;;;;;;5034692;28;20410;-68
2021/10/08 12:42:58;;;;;;;14.20;10.70;;;;;;;;;;5033266;28;20407;-68
2021/10/08 12:45:33;;;;;;;15.67;13.23;;;;;;;;;;5034673;28;20419;-68
2021/10/08 12:48:00;;;;;;;14.00;11.37;;;;;;;;;;5035158;28;20387;-69
2021/10/08 12:50:26;;;;;;;13.70;12.03;;;;;;;;;;5034874;28;20446;-68
2021/10/08 12:52:53;;;;;;;15.70;13.30;;;;;;;;;;5034554;28;20406;-68
2021/10/08 12:55:20;;;;;;;14.60;11.40;;;;;;;;;;5033431;28;20767;-68
2021/10/08 12:58:02;;;;;;;12.80;11.40;;;;;;;;;;5041340;28;20410;-68
2021/10/08 13:00:54;;;;;;;17.10;12.10;;;;;;;;;;5040732;28;20418;-68
2021/10/08 13:03:36;;;;;;;16.33;12.20;;;;;;;;;;5039834;28;20423;-68
2021/10/08 13:06:10;;;;;;;13.60;11.17;;;;;;;;;;5043204;28;20438;-68
2021/10/08 13:08:38;;;;;;;12.80;10.97;;;;;;;;;;5038003;28;20410;-68
2021/10/08 13:11:05;;;;;;;14.27;11.60;;;;;;;;;;5034364;28;20565;-68
2021/10/08 13:13:32;;;;;;;16.17;11.43;;;;;;;;;;5034422;28;20413;-68
2021/10/08 13:15:59;;;;;;;15.50;11.60;;;;;;;;;;5034589;28;20782;-68
2021/10/08 13:18:39;;;;;;;14.50;11.37;;;;;;;;;;5034413;28;20399;-68
2021/10/08 13:21:05;;;;;;;14.13;12.50;;;;;;;;;;5034450;28;20452;-68
2021/10/08 13:23:32;;;;;;;14.90;11.90;;;;;;;;;;5034369;28;20926;-67
2021/10/08 13:25:58;;;;;;;17.57;11.90;;;;;;;;;;5034553;28;20455;-68
2021/10/08 13:28:24;;;;;;;12.90;11.23;;;;;;;;;;5033962;28;20421;-68
2021/10/08 13:30:57;;;;;;;25.10;12.80;;;;;;;;;;5033659;28;20460;-68
2021/10/08 13:33:23;;;;;;;14.50;11.57;;;;;;;;;;5033993;28;20394;-68
2021/10/08 13:35:50;;;;;;;16.30;12.50;;;;;;;;;;5033794;28;20493;-68
2021/10/08 13:38:16;;;;;;;22.40;12.67;;;;;;;;;;5033705;28;20411;-68
2021/10/08 13:40:43;;;;;;;18.70;13.27;;;;;;;;;;5033670;28;20399;-68
2021/10/08 13:43:09;;;;;;;17.50;12.47;;;;;;;;;;5032731;28;20402;-68
2021/10/08 13:45:35;;;;;;;17.30;11.33;;;;;;;;;;5033901;28;20442;-69
2021/10/08 13:48:01;;;;;;;16.80;12.17;;;;;;;;;;5034047;28;20457;-69
2021/10/08 13:50:27;;;;;;;17.60;13.50;;;;;;;;;;5030888;28;20975;-69
2021/10/08 13:52:53;;;;;;;18.63;13.03;;;;;;;;;;5032238;28;20410;-69
2021/10/08 13:55:19;;;;;;;19.47;13.90;;;;;;;;;;5033641;28;20822;-69
2021/10/08 13:57:45;;;;;;;16.43;13.77;;;;;;;;;;5034885;28;20484;-69
2021/10/08 14:00:12;;;;;;;14.00;10.93;;;;;;;;;;5033809;28;20438;-69
2021/10/08 14:07:54;;;;;;;16.93;13.23;;;;;;;;;;5033361;28;20430;-69
2021/10/08 14:10:23;;;;;;;17.63;12.37;;;;;;;;;;5033147;28;20516;-68
2021/10/08 14:12:50;;;;;;;20.67;13.63;;;;;;;;;;5032934;28;20477;-68
2021/10/08 14:15:17;;;;;;;16.13;12.60;;;;;;;;;;5031371;28;20407;-69
2021/10/08 14:17:44;;;;;;;19.37;14.47;;;;;;;;;;5033195;28;20410;-69
2021/10/08 14:20:10;;;;;;;19.87;12.83;;;;;;;;;;5033413;28;20398;-69
2021/10/08 14:22:37;;;;;;;14.97;11.87;;;;;;;;;;5032885;28;20410;-69
2021/10/08 14:25:04;;;;;;;16.77;12.23;;;;;;;;;;5033180;28;20401;-69
2021/10/08 14:27:30;;;;;;;14.67;12.00;;;;;;;;;;5033948;28;20431;-69
2021/10/08 14:29:56;;;;;;;17.70;13.53;;;;;;;;;;5032799;28;20810;-69
2021/10/08 14:32:22;;;;;;;15.57;11.47;;;;;;;;;;5031852;28;20487;-69
2021/10/08 14:34:48;;;;;;;15.77;11.67;;;;;;;;;;5033482;28;20395;-69
2021/10/08 14:37:14;;;;;;;12.83;10.87;;;;;;;;;;5032796;28;20450;-69
2021/10/08 14:39:40;;;;;;;16.50;13.03;;;;;;;;;;5032778;28;20457;-69
2021/10/08 14:42:06;;;;;;;15.77;12.40;;;;;;;;;;5032979;28;20407;-69